createdAt,value
2015-11-26T00:00:06.076Z,72077
2015-11-26T00:00:18.435Z,72075
2015-11-26T00:00:30.844Z,72077
2015-11-26T00:00:43.410Z,72074
2015-11-26T00:00:56.243Z,72079
2015-11-26T00:01:08.713Z,72073
2015-11-26T00:01:21.025Z,72075
2015-11-26T00:01:33.497Z,72076
2015-11-26T00:01:47.336Z,72075
2015-11-26T00:01:59.305Z,72078
2015-11-26T00:02:11.523Z,72073
2015-11-26T00:02:23.711Z,72073
2015-11-26T00:02:35.963Z,72074
2015-11-26T00:02:48.275Z,72075
2015-11-26T00:03:00.572Z,72075
2015-11-26T00:03:13.916Z,72074
2015-11-26T00:03:26.713Z,72076
2015-11-26T00:03:39.076Z,72077
2015-11-26T00:03:50.826Z,72077
2015-11-26T00:04:03.242Z,72080
2015-11-26T00:04:15.189Z,72074
2015-11-26T00:04:27.627Z,72078
2015-11-26T00:04:40.582Z,72074
2015-11-26T00:04:53.738Z,72076
2015-11-26T00:05:06.348Z,72077
2015-11-26T00:05:18.770Z,72076
2015-11-26T00:05:31.226Z,72075
2015-11-26T00:05:43.773Z,72078
2015-11-26T00:05:56.132Z,72075
2015-11-26T00:06:08.491Z,72076
2015-11-26T00:06:20.851Z,72076
2015-11-26T00:06:33.243Z,72075
2015-11-26T00:06:45.603Z,72079
2015-11-26T00:06:57.243Z,72077
2015-11-26T00:07:09.603Z,72076
2015-11-26T00:07:21.962Z,72074
2015-11-26T00:07:34.371Z,72076
2015-11-26T00:07:46.824Z,72074
2015-11-26T00:07:59.184Z,72074
2015-11-26T00:08:11.543Z,72072
2015-11-26T00:08:23.903Z,72075
2015-11-26T00:08:36.265Z,72073
2015-11-26T00:08:48.624Z,72072
2015-11-26T00:09:00.968Z,72074
2015-11-26T00:09:13.327Z,72073
2015-11-26T00:09:25.702Z,72074
2015-11-26T00:09:38.096Z,72074
2015-11-26T00:09:50.580Z,72072
2015-11-26T00:10:03.065Z,72071
2015-11-26T00:10:15.534Z,72072
2015-11-26T00:10:27.877Z,72071
2015-11-26T00:10:40.239Z,72071
2015-11-26T00:10:52.598Z,72073
2015-11-26T00:11:04.942Z,72073
2015-11-26T00:11:17.395Z,72069
2015-11-26T00:11:29.817Z,72068
2015-11-26T00:11:42.179Z,72072
2015-11-26T00:11:54.554Z,72069
2015-11-26T00:12:06.914Z,72071
2015-11-26T00:12:19.304Z,72071
2015-11-26T00:12:31.695Z,72069
2015-11-26T00:12:44.150Z,72072
2015-11-26T00:12:56.509Z,72068
2015-11-26T00:13:08.869Z,72071
2015-11-26T00:13:21.244Z,72071
2015-11-26T00:13:33.587Z,72071
2015-11-26T00:13:45.966Z,72071
2015-11-26T00:13:58.310Z,72072
2015-11-26T00:14:10.670Z,72072
2015-11-26T00:14:23.123Z,72072
2015-11-26T00:14:35.485Z,72071
2015-11-26T00:14:47.876Z,72076
2015-11-26T00:15:00.266Z,72072
2015-11-26T00:15:12.626Z,72069
2015-11-26T00:15:24.985Z,72072
2015-11-26T00:15:37.331Z,72070
2015-11-26T00:15:49.550Z,72073
2015-11-26T00:16:01.909Z,72075
2015-11-26T00:16:14.268Z,72076
2015-11-26T00:16:26.643Z,72073
2015-11-26T00:16:39.021Z,72074
2015-11-26T00:16:51.412Z,72072
2015-11-26T00:17:03.803Z,72074
2015-11-26T00:17:16.256Z,72074
2015-11-26T00:17:28.646Z,72071
2015-11-26T00:17:41.039Z,72073
2015-11-26T00:17:53.398Z,72074
2015-11-26T00:18:05.758Z,72073
2015-11-26T00:18:18.117Z,72073
2015-11-26T00:18:30.476Z,72076
2015-11-26T00:18:42.886Z,72072
2015-11-26T00:18:55.261Z,72074
2015-11-26T00:19:07.636Z,72073
2015-11-26T00:19:20.042Z,72070
2015-11-26T00:19:32.433Z,72073
2015-11-26T00:19:44.091Z,72071
2015-11-26T00:19:56.606Z,72073
2015-11-26T00:20:08.997Z,72073
2015-11-26T00:20:21.372Z,72073
2015-11-26T00:20:33.716Z,72076
2015-11-26T00:20:46.079Z,72076
2015-11-26T00:20:58.282Z,72071
2015-11-26T00:21:10.642Z,72076
2015-11-26T00:21:22.298Z,72074
2015-11-26T00:21:34.689Z,72075
2015-11-26T00:21:47.067Z,72073
2015-11-26T00:21:59.442Z,72074
2015-11-26T00:22:11.832Z,72074
2015-11-26T00:22:24.207Z,72075
2015-11-26T00:22:36.582Z,72074
2015-11-26T00:22:48.256Z,72074
2015-11-26T00:23:00.662Z,72073
2015-11-26T00:23:13.022Z,72073
2015-11-26T00:23:25.365Z,72073
2015-11-26T00:23:37.725Z,72075
2015-11-26T00:23:50.086Z,72075
2015-11-26T00:24:02.461Z,72075
2015-11-26T00:24:14.821Z,72073
2015-11-26T00:24:27.227Z,72073
2015-11-26T00:24:39.617Z,72076
2015-11-26T00:24:51.981Z,72076
2015-11-26T00:25:04.340Z,72076
2015-11-26T00:25:16.825Z,72076
2015-11-26T00:25:29.184Z,72076
2015-11-26T00:25:41.559Z,72077
2015-11-26T00:25:53.953Z,72076
2015-11-26T00:26:06.312Z,72074
2015-11-26T00:26:18.687Z,72078
2015-11-26T00:26:31.046Z,72078
2015-11-26T00:26:43.437Z,72076
2015-11-26T00:26:55.830Z,72077
2015-11-26T00:27:08.220Z,72077
2015-11-26T00:27:20.611Z,72078
2015-11-26T00:27:32.970Z,72078
2015-11-26T00:27:45.314Z,72080
2015-11-26T00:27:57.676Z,72080
2015-11-26T00:28:10.036Z,72080
2015-11-26T00:28:22.379Z,72078
2015-11-26T00:28:34.739Z,72079
2015-11-26T00:28:47.176Z,72078
2015-11-26T00:28:59.586Z,72080
2015-11-26T00:29:11.976Z,72080
2015-11-26T00:29:24.351Z,72082
2015-11-26T00:29:36.742Z,72080
2015-11-26T00:29:49.117Z,72080
2015-11-26T00:30:01.478Z,72080
2015-11-26T00:30:13.931Z,72081
2015-11-26T00:30:26.275Z,72084
2015-11-26T00:30:38.634Z,72080
2015-11-26T00:30:50.997Z,72080
2015-11-26T00:31:03.356Z,72081
2015-11-26T00:31:15.716Z,72081
2015-11-26T00:31:28.091Z,72079
2015-11-26T00:31:40.466Z,72080
2015-11-26T00:31:52.828Z,72078
2015-11-26T00:32:05.234Z,72078
2015-11-26T00:32:17.609Z,72079
2015-11-26T00:32:29.953Z,72079
2015-11-26T00:32:42.312Z,72077
2015-11-26T00:32:54.659Z,72079
2015-11-26T00:33:07.003Z,72077
2015-11-26T00:33:19.378Z,72076
2015-11-26T00:33:31.815Z,72079
2015-11-26T00:33:44.190Z,72077
2015-11-26T00:33:55.880Z,72076
2015-11-26T00:34:08.255Z,72078
2015-11-26T00:34:20.630Z,72080
2015-11-26T00:34:33.052Z,72080
2015-11-26T00:34:45.411Z,72077
2015-11-26T00:34:57.758Z,72076
2015-11-26T00:35:10.133Z,72078
2015-11-26T00:35:22.492Z,72077
2015-11-26T00:35:34.836Z,72080
2015-11-26T00:35:47.195Z,72080
2015-11-26T00:35:59.573Z,72079
2015-11-26T00:36:11.980Z,72080
2015-11-26T00:36:24.386Z,72081
2015-11-26T00:36:36.605Z,72078
2015-11-26T00:36:48.948Z,72081
2015-11-26T00:37:01.325Z,72079
2015-11-26T00:37:13.669Z,72080
2015-11-26T00:37:25.310Z,72077
2015-11-26T00:37:37.716Z,72075
2015-11-26T00:37:50.075Z,72079
2015-11-26T00:38:02.485Z,72080
2015-11-26T00:38:14.860Z,72079
2015-11-26T00:38:27.235Z,72079
2015-11-26T00:38:39.703Z,72077
2015-11-26T00:38:52.110Z,72081
2015-11-26T00:39:04.503Z,72078
2015-11-26T00:39:16.894Z,72080
2015-11-26T00:39:29.238Z,72076
2015-11-26T00:39:41.597Z,72081
2015-11-26T00:39:53.956Z,72080
2015-11-26T00:40:06.302Z,72077
2015-11-26T00:40:18.661Z,72077
2015-11-26T00:40:31.021Z,72077
2015-11-26T00:40:43.443Z,72077
2015-11-26T00:40:55.833Z,72080
2015-11-26T00:41:08.227Z,72077
2015-11-26T00:41:20.618Z,72079
2015-11-26T00:41:32.961Z,72078
2015-11-26T00:41:45.211Z,72078
2015-11-26T00:41:57.571Z,72080
2015-11-26T00:42:09.933Z,72078
2015-11-26T00:42:22.277Z,72079
2015-11-26T00:42:34.480Z,72079
2015-11-26T00:42:46.839Z,72078
2015-11-26T00:42:59.248Z,72080
2015-11-26T00:43:11.466Z,72078
2015-11-26T00:43:23.857Z,72078
2015-11-26T00:43:36.232Z,72077
2015-11-26T00:43:48.591Z,72080
2015-11-26T00:44:00.939Z,72077
2015-11-26T00:44:13.298Z,72079
2015-11-26T00:44:25.642Z,72076
2015-11-26T00:44:38.048Z,72079
2015-11-26T00:44:50.486Z,72078
2015-11-26T00:45:02.863Z,72079
2015-11-26T00:45:15.238Z,72082
2015-11-26T00:45:27.629Z,72079
2015-11-26T00:45:40.004Z,72082
2015-11-26T00:45:52.363Z,72076
2015-11-26T00:46:04.772Z,72081
2015-11-26T00:46:16.413Z,72079
2015-11-26T00:46:28.757Z,72081
2015-11-26T00:46:41.116Z,72082
2015-11-26T00:46:53.475Z,72081
2015-11-26T00:47:05.838Z,72084
2015-11-26T00:47:18.197Z,72079
2015-11-26T00:47:30.572Z,72077
2015-11-26T00:47:42.963Z,72081
2015-11-26T00:47:55.338Z,72080
2015-11-26T00:48:06.980Z,72085
2015-11-26T00:48:19.324Z,72082
2015-11-26T00:48:31.683Z,72081
2015-11-26T00:48:44.043Z,72082
2015-11-26T00:48:56.418Z,72084
2015-11-26T00:49:08.780Z,72081
2015-11-26T00:49:21.296Z,72081
2015-11-26T00:49:33.686Z,72082
2015-11-26T00:49:46.061Z,72081
2015-11-26T00:49:58.374Z,72084
2015-11-26T00:50:10.829Z,72084
2015-11-26T00:50:23.188Z,72086
2015-11-26T00:50:35.548Z,72084
2015-11-26T00:50:47.907Z,72084
2015-11-26T00:51:00.251Z,72085
2015-11-26T00:51:12.613Z,72084
2015-11-26T00:51:24.973Z,72082
2015-11-26T00:51:37.348Z,72082
2015-11-26T00:51:49.738Z,72081
2015-11-26T00:52:02.098Z,72087
2015-11-26T00:52:14.460Z,72081
2015-11-26T00:52:26.835Z,72081
2015-11-26T00:52:38.554Z,72083
2015-11-26T00:52:50.913Z,72082
2015-11-26T00:53:03.273Z,72082
2015-11-26T00:53:15.634Z,72084
2015-11-26T00:53:28.009Z,72083
2015-11-26T00:53:40.368Z,72083
2015-11-26T00:53:52.790Z,72083
2015-11-26T00:54:05.263Z,72087
2015-11-26T00:54:17.607Z,72083
2015-11-26T00:54:29.950Z,72084
2015-11-26T00:54:42.357Z,72085
2015-11-26T00:54:54.779Z,72087
2015-11-26T00:55:06.984Z,72085
2015-11-26T00:55:19.343Z,72086
2015-11-26T00:55:31.702Z,72084
2015-11-26T00:55:44.062Z,72086
2015-11-26T00:55:56.421Z,72083
2015-11-26T00:56:08.924Z,72079
2015-11-26T00:56:21.330Z,72083
2015-11-26T00:56:33.674Z,72079
2015-11-26T00:56:46.034Z,72079
2015-11-26T00:56:58.377Z,72080
2015-11-26T00:57:10.755Z,72080
2015-11-26T00:57:23.115Z,72081
2015-11-26T00:57:35.458Z,72086
2015-11-26T00:57:47.849Z,72082
2015-11-26T00:58:00.302Z,72085
2015-11-26T00:58:12.726Z,72084
2015-11-26T00:58:25.132Z,72080
2015-11-26T00:58:37.492Z,72086
2015-11-26T00:58:49.851Z,72083
2015-11-26T00:59:02.195Z,72084
2015-11-26T00:59:14.657Z,72084
2015-11-26T00:59:27.126Z,72083
2015-11-26T00:59:39.516Z,72088
2015-11-26T00:59:51.907Z,72084
2015-11-26T01:00:04.282Z,72083
2015-11-26T01:00:16.691Z,72088
2015-11-26T01:00:29.082Z,72084
2015-11-26T01:00:41.425Z,72085
2015-11-26T01:00:53.769Z,72087
2015-11-26T01:01:06.160Z,72087
2015-11-26T01:01:18.537Z,72081
2015-11-26T01:01:30.896Z,72084
2015-11-26T01:01:43.240Z,72085
2015-11-26T01:01:55.615Z,72085
2015-11-26T01:02:07.974Z,72087
2015-11-26T01:02:20.368Z,72086
2015-11-26T01:02:32.759Z,72089
2015-11-26T01:02:45.118Z,72087
2015-11-26T01:02:57.462Z,72088
2015-11-26T01:03:09.821Z,72086
2015-11-26T01:03:22.215Z,72086
2015-11-26T01:03:34.637Z,72088
2015-11-26T01:03:46.980Z,72086
2015-11-26T01:03:59.355Z,72085
2015-11-26T01:04:11.730Z,72086
2015-11-26T01:04:24.124Z,72087
2015-11-26T01:04:35.796Z,72088
2015-11-26T01:04:48.265Z,72090
2015-11-26T01:05:00.686Z,72089
2015-11-26T01:05:13.046Z,72089
2015-11-26T01:05:25.392Z,72088
2015-11-26T01:05:37.751Z,72089
2015-11-26T01:05:50.095Z,72089
2015-11-26T01:06:02.470Z,72088
2015-11-26T01:06:14.892Z,72088
2015-11-26T01:06:27.301Z,72087
2015-11-26T01:06:39.660Z,72089
2015-11-26T01:06:52.035Z,72087
2015-11-26T01:07:04.426Z,72085
2015-11-26T01:07:16.801Z,72086
2015-11-26T01:07:29.210Z,72086
2015-11-26T01:07:41.679Z,72084
2015-11-26T01:07:54.116Z,72084
2015-11-26T01:08:06.476Z,72089
2015-11-26T01:08:18.929Z,72089
2015-11-26T01:08:31.369Z,72086
2015-11-26T01:08:43.713Z,72091
2015-11-26T01:08:56.072Z,72089
2015-11-26T01:09:08.432Z,72089
2015-11-26T01:09:20.791Z,72089
2015-11-26T01:09:33.185Z,72088
2015-11-26T01:09:45.685Z,72086
2015-11-26T01:09:58.075Z,72090
2015-11-26T01:10:10.450Z,72085
2015-11-26T01:10:22.796Z,72088
2015-11-26T01:10:35.156Z,72087
2015-11-26T01:10:47.593Z,72092
2015-11-26T01:10:59.937Z,72096
2015-11-26T01:11:12.296Z,72090
2015-11-26T01:11:24.659Z,72093
2015-11-26T01:11:37.002Z,72091
2015-11-26T01:11:49.346Z,72089
2015-11-26T01:12:01.752Z,72093
2015-11-26T01:12:14.190Z,72092
2015-11-26T01:12:26.582Z,72093
2015-11-26T01:12:37.504Z,72091
2015-11-26T01:12:49.848Z,72091
2015-11-26T01:13:02.207Z,72093
2015-11-26T01:13:14.614Z,72091
2015-11-26T01:13:27.008Z,72094
2015-11-26T01:13:39.368Z,72095
2015-11-26T01:13:51.743Z,72092
2015-11-26T01:14:04.118Z,72091
2015-11-26T01:14:16.493Z,72093
2015-11-26T01:14:28.760Z,72093
2015-11-26T01:14:41.135Z,72095
2015-11-26T01:14:53.479Z,72095
2015-11-26T01:15:05.682Z,72094
2015-11-26T01:15:18.042Z,72093
2015-11-26T01:15:30.403Z,72091
2015-11-26T01:15:42.747Z,72092
2015-11-26T01:15:55.090Z,72093
2015-11-26T01:16:07.465Z,72093
2015-11-26T01:16:19.825Z,72094
2015-11-26T01:16:32.203Z,72094
2015-11-26T01:16:44.593Z,72090
2015-11-26T01:16:56.953Z,72091
2015-11-26T01:17:09.297Z,72092
2015-11-26T01:17:21.656Z,72092
2015-11-26T01:17:34.034Z,72091
2015-11-26T01:17:46.409Z,72093
2015-11-26T01:17:58.753Z,72090
2015-11-26T01:18:11.112Z,72094
2015-11-26T01:18:23.487Z,72095
2015-11-26T01:18:35.848Z,72095
2015-11-26T01:18:48.239Z,72091
2015-11-26T01:19:00.614Z,72095
2015-11-26T01:19:13.020Z,72092
2015-11-26T01:19:25.380Z,72093
2015-11-26T01:19:37.790Z,72092
2015-11-26T01:19:50.165Z,72091
2015-11-26T01:20:02.509Z,72093
2015-11-26T01:20:14.149Z,72092
2015-11-26T01:20:26.493Z,72093
2015-11-26T01:20:38.855Z,72093
2015-11-26T01:20:51.277Z,72095
2015-11-26T01:21:03.715Z,72091
2015-11-26T01:21:15.934Z,72092
2015-11-26T01:21:28.324Z,72092
2015-11-26T01:21:40.701Z,72091
2015-11-26T01:21:53.107Z,72092
2015-11-26T01:22:05.482Z,72091
2015-11-26T01:22:17.842Z,72091
2015-11-26T01:22:55.440Z,72091
2015-11-26T01:23:07.799Z,72094
2015-11-26T01:23:20.174Z,72091
2015-11-26T01:23:32.643Z,72091
2015-11-26T01:23:45.096Z,72091
2015-11-26T01:23:57.473Z,72089
2015-11-26T01:24:09.817Z,72090
2015-11-26T01:24:22.176Z,72088
2015-11-26T01:24:34.520Z,72089
2015-11-26T01:24:46.879Z,72084
2015-11-26T01:24:59.241Z,72090
2015-11-26T01:25:11.616Z,72088
2015-11-26T01:25:24.038Z,72087
2015-11-26T01:25:36.398Z,72087
2015-11-26T01:25:48.757Z,72089
2015-11-26T01:26:00.448Z,72090
2015-11-26T01:26:12.838Z,72090
2015-11-26T01:26:25.260Z,72090
2015-11-26T01:26:37.698Z,72089
2015-11-26T01:26:50.057Z,72090
2015-11-26T01:27:02.418Z,72086
2015-11-26T01:27:14.762Z,72085
2015-11-26T01:27:27.184Z,72085
2015-11-26T01:27:39.590Z,72090
2015-11-26T01:27:51.965Z,72083
2015-11-26T01:28:04.343Z,72084
2015-11-26T01:28:16.734Z,72081
2015-11-26T01:28:29.171Z,72085
2015-11-26T01:28:41.531Z,72082
2015-11-26T01:28:53.968Z,72085
2015-11-26T01:29:06.377Z,72084
2015-11-26T01:29:18.752Z,72087
2015-11-26T01:29:31.112Z,72086
2015-11-26T01:29:43.549Z,72086
2015-11-26T01:29:55.924Z,72086
2015-11-26T01:30:08.318Z,72086
2015-11-26T01:30:20.709Z,72087
2015-11-26T01:30:33.115Z,72089
2015-11-26T01:30:45.459Z,72088
2015-11-26T01:30:57.896Z,72090
2015-11-26T01:31:10.242Z,72090
2015-11-26T01:31:22.617Z,72088
2015-11-26T01:31:34.961Z,72086
2015-11-26T01:31:47.320Z,72083
2015-11-26T01:31:59.679Z,72084
2015-11-26T01:32:12.074Z,72081
2015-11-26T01:32:24.480Z,72085
2015-11-26T01:32:36.980Z,72085
2015-11-26T01:32:49.340Z,72087
2015-11-26T01:33:01.699Z,72086
2015-11-26T01:33:14.045Z,72085
2015-11-26T01:33:26.388Z,72089
2015-11-26T01:33:38.763Z,72083
2015-11-26T01:33:51.185Z,72085
2015-11-26T01:34:03.545Z,72085
2015-11-26T01:34:15.907Z,72085
2015-11-26T01:34:28.282Z,72084
2015-11-26T01:34:40.657Z,72084
2015-11-26T01:34:53.032Z,72079
2015-11-26T01:35:05.410Z,72083
2015-11-26T01:35:17.769Z,72085
2015-11-26T01:35:30.144Z,72084
2015-11-26T01:35:42.519Z,72081
2015-11-26T01:35:54.894Z,72086
2015-11-26T01:36:07.241Z,72083
2015-11-26T01:36:19.585Z,72086
2015-11-26T01:36:31.976Z,72085
2015-11-26T01:36:44.335Z,72085
2015-11-26T01:36:56.710Z,72085
2015-11-26T01:37:09.103Z,72087
2015-11-26T01:37:21.478Z,72091
2015-11-26T01:37:33.853Z,72087
2015-11-26T01:37:46.196Z,72088
2015-11-26T01:37:58.556Z,72084
2015-11-26T01:38:10.918Z,72085
2015-11-26T01:38:23.340Z,72085
2015-11-26T01:38:35.715Z,72087
2015-11-26T01:38:48.059Z,72090
2015-11-26T01:39:00.434Z,72087
2015-11-26T01:39:12.077Z,72088
2015-11-26T01:39:24.468Z,72086
2015-11-26T01:39:36.843Z,72087
2015-11-26T01:39:49.265Z,72093
2015-11-26T01:40:01.640Z,72090
2015-11-26T01:40:13.986Z,72088
2015-11-26T01:40:26.345Z,72090
2015-11-26T01:40:38.689Z,72092
2015-11-26T01:40:51.048Z,72092
2015-11-26T01:41:03.392Z,72090
2015-11-26T01:41:15.754Z,72092
2015-11-26T01:41:28.129Z,72092
2015-11-26T01:41:40.489Z,72093
2015-11-26T01:41:52.895Z,72093
2015-11-26T01:42:05.301Z,72090
2015-11-26T01:42:17.679Z,72095
2015-11-26T01:42:30.023Z,72094
2015-11-26T01:42:42.398Z,72093
2015-11-26T01:42:54.773Z,72097
2015-11-26T01:43:07.132Z,72097
2015-11-26T01:43:19.494Z,72099
2015-11-26T01:43:31.837Z,72096
2015-11-26T01:43:44.197Z,72096
2015-11-26T01:43:56.572Z,72097
2015-11-26T01:44:08.931Z,72101
2015-11-26T01:44:21.326Z,72101
2015-11-26T01:44:33.716Z,72098
2015-11-26T01:44:46.060Z,72101
2015-11-26T01:44:58.419Z,72102
2015-11-26T01:45:10.779Z,72100
2015-11-26T01:45:23.140Z,72100
2015-11-26T01:45:35.500Z,72096
2015-11-26T01:45:47.859Z,72097
2015-11-26T01:46:00.218Z,72099
2015-11-26T01:46:12.578Z,72099
2015-11-26T01:46:24.940Z,72098
2015-11-26T01:46:37.315Z,72096
2015-11-26T01:46:49.690Z,72097
2015-11-26T01:47:02.049Z,72098
2015-11-26T01:47:14.393Z,72099
2015-11-26T01:47:26.756Z,72098
2015-11-26T01:47:39.099Z,72100
2015-11-26T01:47:51.521Z,72096
2015-11-26T01:48:03.974Z,72102
2015-11-26T01:48:16.334Z,72098
2015-11-26T01:48:28.742Z,72100
2015-11-26T01:48:41.101Z,72099
2015-11-26T01:48:53.445Z,72100
2015-11-26T01:49:05.804Z,72100
2015-11-26T01:49:18.258Z,72100
2015-11-26T01:49:30.682Z,72103
2015-11-26T01:49:43.042Z,72101
2015-11-26T01:49:55.401Z,72101
2015-11-26T01:50:07.761Z,72102
2015-11-26T01:50:20.123Z,72101
2015-11-26T01:50:32.514Z,72103
2015-11-26T01:50:44.904Z,72103
2015-11-26T01:50:57.279Z,72102
2015-11-26T01:51:09.670Z,72103
2015-11-26T01:51:22.110Z,72099
2015-11-26T01:51:34.485Z,72101
2015-11-26T01:51:46.845Z,72099
2015-11-26T01:51:59.188Z,72102
2015-11-26T01:52:11.548Z,72100
2015-11-26T01:52:23.909Z,72105
2015-11-26T01:52:36.394Z,72101
2015-11-26T01:52:48.784Z,72100
2015-11-26T01:53:01.159Z,72100
2015-11-26T01:53:13.534Z,72098
2015-11-26T01:53:25.225Z,72099
2015-11-26T01:53:37.584Z,72101
2015-11-26T01:53:49.787Z,72097
2015-11-26T01:54:02.131Z,72099
2015-11-26T01:54:14.506Z,72099
2015-11-26T01:54:26.930Z,72097
2015-11-26T01:54:39.274Z,72099
2015-11-26T01:54:51.633Z,72100
2015-11-26T01:55:04.008Z,72104
2015-11-26T01:55:16.227Z,72100
2015-11-26T01:55:28.589Z,72101
2015-11-26T01:55:41.042Z,72099
2015-11-26T01:55:53.386Z,72099
2015-11-26T01:56:05.730Z,72099
2015-11-26T01:56:18.089Z,72101
2015-11-26T01:56:29.748Z,72101
2015-11-26T01:56:42.123Z,72100
2015-11-26T01:56:54.545Z,72104
2015-11-26T01:57:06.951Z,72104
2015-11-26T01:57:19.342Z,72102
2015-11-26T01:57:31.533Z,72102
2015-11-26T01:57:43.954Z,72106
2015-11-26T01:57:56.314Z,72108
2015-11-26T01:58:08.658Z,72105
2015-11-26T01:58:21.017Z,72104
2015-11-26T01:58:33.394Z,72106
2015-11-26T01:58:45.769Z,72106
2015-11-26T01:58:58.128Z,72108
2015-11-26T01:59:10.503Z,72107
2015-11-26T01:59:22.753Z,72108
2015-11-26T01:59:35.163Z,72105
2015-11-26T01:59:47.538Z,72104
2015-11-26T01:59:59.584Z,72103
2015-11-26T02:00:11.975Z,72103
2015-11-26T02:00:24.319Z,72108
2015-11-26T02:00:36.665Z,72108
2015-11-26T02:00:48.321Z,72110
2015-11-26T02:01:00.665Z,72108
2015-11-26T02:01:13.040Z,72107
2015-11-26T02:01:25.415Z,72107
2015-11-26T02:01:37.824Z,72108
2015-11-26T02:01:50.214Z,72108
2015-11-26T02:02:02.605Z,72107
2015-11-26T02:02:14.964Z,72103
2015-11-26T02:02:27.324Z,72104
2015-11-26T02:02:38.983Z,72104
2015-11-26T02:02:51.342Z,72105
2015-11-26T02:03:03.014Z,72102
2015-11-26T02:03:15.436Z,72100
2015-11-26T02:03:27.796Z,72106
2015-11-26T02:03:40.158Z,72102
2015-11-26T02:03:52.533Z,72102
2015-11-26T02:04:04.924Z,72103
2015-11-26T02:04:17.142Z,72105
2015-11-26T02:04:29.517Z,72108
2015-11-26T02:04:41.880Z,72103
2015-11-26T02:04:54.286Z,72107
2015-11-26T02:05:06.645Z,72107
2015-11-26T02:05:18.989Z,72108
2015-11-26T02:05:31.348Z,72107
2015-11-26T02:05:43.694Z,72109
2015-11-26T02:05:56.054Z,72109
2015-11-26T02:06:08.429Z,72106
2015-11-26T02:06:20.804Z,72108
2015-11-26T02:06:33.182Z,72107
2015-11-26T02:06:45.588Z,72111
2015-11-26T02:06:57.978Z,72105
2015-11-26T02:07:10.338Z,72109
2015-11-26T02:07:22.697Z,72104
2015-11-26T02:07:35.060Z,72108
2015-11-26T02:07:47.435Z,72113
2015-11-26T02:07:59.794Z,72111
2015-11-26T02:08:12.138Z,72107
2015-11-26T02:08:24.513Z,72107
2015-11-26T02:08:36.875Z,72111
2015-11-26T02:08:49.094Z,72108
2015-11-26T02:09:01.484Z,72104
2015-11-26T02:09:13.859Z,72105
2015-11-26T02:09:26.219Z,72106
2015-11-26T02:09:38.580Z,72103
2015-11-26T02:09:50.924Z,72108
2015-11-26T02:10:03.361Z,72106
2015-11-26T02:10:15.736Z,72108
2015-11-26T02:10:28.096Z,72103
2015-11-26T02:10:40.474Z,72105
2015-11-26T02:10:52.864Z,72107
2015-11-26T02:11:05.224Z,72108
2015-11-26T02:11:17.568Z,72107
2015-11-26T02:11:29.927Z,72108
2015-11-26T02:11:42.274Z,72109
2015-11-26T02:11:54.649Z,72110
2015-11-26T02:12:07.024Z,72112
2015-11-26T02:12:19.383Z,72110
2015-11-26T02:12:31.742Z,72113
2015-11-26T02:12:44.120Z,72113
2015-11-26T02:12:55.792Z,72112
2015-11-26T02:13:08.167Z,72110
2015-11-26T02:13:20.511Z,72113
2015-11-26T02:13:32.886Z,72108
2015-11-26T02:13:45.247Z,72108
2015-11-26T02:13:57.607Z,72106
2015-11-26T02:14:09.966Z,72109
2015-11-26T02:14:22.326Z,72108
2015-11-26T02:14:34.732Z,72107
2015-11-26T02:14:47.110Z,72106
2015-11-26T02:14:59.485Z,72104
2015-11-26T02:15:11.860Z,72107
2015-11-26T02:15:24.110Z,72107
2015-11-26T02:15:36.500Z,72108
2015-11-26T02:15:48.878Z,72106
2015-11-26T02:16:01.222Z,72105
2015-11-26T02:16:13.582Z,72106
2015-11-26T02:16:25.941Z,72107
2015-11-26T02:16:38.300Z,72110
2015-11-26T02:16:50.662Z,72110
2015-11-26T02:17:03.005Z,72111
2015-11-26T02:17:15.365Z,72111
2015-11-26T02:17:27.755Z,72114
2015-11-26T02:17:40.130Z,72114
2015-11-26T02:17:52.555Z,72113
2015-11-26T02:18:04.993Z,72117
2015-11-26T02:18:17.337Z,72111
2015-11-26T02:18:29.696Z,72118
2015-11-26T02:18:42.043Z,72113
2015-11-26T02:18:54.402Z,72114
2015-11-26T02:19:06.808Z,72114
2015-11-26T02:19:19.308Z,72112
2015-11-26T02:19:31.683Z,72113
2015-11-26T02:19:44.061Z,72115
2015-11-26T02:19:56.452Z,72109
2015-11-26T02:20:08.843Z,72108
2015-11-26T02:20:21.296Z,72109
2015-11-26T02:20:33.686Z,72107
2015-11-26T02:20:46.049Z,72106
2015-11-26T02:20:58.408Z,72106
2015-11-26T02:21:10.767Z,72107
2015-11-26T02:21:23.111Z,72109
2015-11-26T02:21:35.517Z,72111
2015-11-26T02:21:47.957Z,72115
2015-11-26T02:22:00.316Z,72114
2015-11-26T02:22:12.691Z,72108
2015-11-26T02:22:25.066Z,72113
2015-11-26T02:22:37.488Z,72113
2015-11-26T02:22:49.819Z,72112
2015-11-26T02:23:02.163Z,72117
2015-11-26T02:23:14.538Z,72117
2015-11-26T02:23:26.882Z,72118
2015-11-26T02:23:39.319Z,72114
2015-11-26T02:23:51.681Z,72114
2015-11-26T02:24:04.056Z,72115
2015-11-26T02:24:16.431Z,72114
2015-11-26T02:24:28.806Z,72114
2015-11-26T02:24:41.181Z,72118
2015-11-26T02:24:53.574Z,72115
2015-11-26T02:25:06.012Z,72119
2015-11-26T02:25:18.434Z,72116
2015-11-26T02:25:30.777Z,72118
2015-11-26T02:25:43.137Z,72116
2015-11-26T02:25:55.499Z,72117
2015-11-26T02:26:07.859Z,72119
2015-11-26T02:26:20.218Z,72117
2015-11-26T02:26:32.609Z,72118
2015-11-26T02:26:44.968Z,72115
2015-11-26T02:26:57.362Z,72116
2015-11-26T02:27:09.737Z,72117
2015-11-26T02:27:22.127Z,72117
2015-11-26T02:27:34.502Z,72116
2015-11-26T02:27:46.846Z,72116
2015-11-26T02:27:59.208Z,72115
2015-11-26T02:28:11.552Z,72118
2015-11-26T02:28:23.896Z,72118
2015-11-26T02:28:36.286Z,72122
2015-11-26T02:28:48.693Z,72121
2015-11-26T02:29:01.085Z,72120
2015-11-26T02:29:13.460Z,72124
2015-11-26T02:29:25.820Z,72127
2015-11-26T02:29:38.179Z,72126
2015-11-26T02:29:50.538Z,72125
2015-11-26T02:30:02.901Z,72123
2015-11-26T02:30:15.260Z,72121
2015-11-26T02:30:27.698Z,72124
2015-11-26T02:30:39.979Z,72120
2015-11-26T02:30:52.354Z,72122
2015-11-26T02:31:04.716Z,72120
2015-11-26T02:31:17.107Z,72120
2015-11-26T02:31:29.466Z,72118
2015-11-26T02:31:41.810Z,72115
2015-11-26T02:31:54.265Z,72114
2015-11-26T02:32:06.609Z,72116
2015-11-26T02:32:19.000Z,72113
2015-11-26T02:32:31.359Z,72118
2015-11-26T02:32:43.703Z,72115
2015-11-26T02:32:56.081Z,72112
2015-11-26T02:33:08.440Z,72114
2015-11-26T02:33:20.846Z,72116
2015-11-26T02:33:33.237Z,72115
2015-11-26T02:33:45.674Z,72118
2015-11-26T02:33:58.115Z,72116
2015-11-26T02:34:09.756Z,72115
2015-11-26T02:34:22.115Z,72118
2015-11-26T02:34:34.474Z,72120
2015-11-26T02:34:46.818Z,72116
2015-11-26T02:34:59.242Z,72114
2015-11-26T02:35:11.633Z,72113
2015-11-26T02:35:24.023Z,72113
2015-11-26T02:35:36.383Z,72115
2015-11-26T02:35:48.758Z,72111
2015-11-26T02:36:01.214Z,72112
2015-11-26T02:36:13.589Z,72112
2015-11-26T02:36:25.948Z,72110
2015-11-26T02:36:38.292Z,72114
2015-11-26T02:36:50.636Z,72112
2015-11-26T02:37:02.998Z,72116
2015-11-26T02:37:15.389Z,72113
2015-11-26T02:37:27.732Z,72117
2015-11-26T02:37:40.107Z,72113
2015-11-26T02:37:52.467Z,72120
2015-11-26T02:38:04.845Z,72120
2015-11-26T02:38:17.313Z,72118
2015-11-26T02:38:29.767Z,72116
2015-11-26T02:38:42.142Z,72117
2015-11-26T02:38:54.501Z,72115
2015-11-26T02:39:06.847Z,72115
2015-11-26T02:39:19.222Z,72115
2015-11-26T02:39:31.565Z,72113